Terminal Aerodrome Forecast
Issued by NWS

Home | Current Version | Previous Version | Text Only | Print | Product List | Glossary On
Versions: 1 2 3 4 5 6 7 8 9 10 11 12 13 14 15 16
464
FTUS41 KGYX 172322
TAFPSM
TAF
KPSM 172322Z 1800/1824 06007KT P6SM OVC025
      TEMPO 1800/1802 2SM -RASN BR BKN012 OVC025
     FM180200 07008KT 2SM -RASN BKN012 OVC025
     FM180400 07008KT 1SM -SN OVC008
     FM181300 05008KT 4SM -SN OVC004
     FM181800 06008KT 4SM -SHSN BR OVC008=

USA.gov is the U.S. government's official web portal to all federal, state and local government web resources and services.